sensor_id;sensor_type;location;lat;lon;timestamp;temperature;humidity
48206;DHT22;33995;48.202;16.260;2022-08-27T00:02:18;21.60;99.90
48206;DHT22;33995;48.202;16.260;2022-08-27T00:04:50;21.60;99.90
48206;DHT22;33995;48.202;16.260;2022-08-27T00:07:18;21.50;99.90
48206;DHT22;33995;48.202;16.260;2022-08-27T00:09:48;21.50;99.90
48206;DHT22;33995;48.202;16.260;2022-08-27T00:12:30;21.50;99.90
48206;DHT22;33995;48.202;16.260;2022-08-27T00:15:03;21.50;99.90
48206;DHT22;33995;48.202;16.260;2022-08-27T00:17:34;21.40;99.90
48206;DHT22;33995;48.202;16.260;2022-08-27T00:20:13;21.30;99.90
48206;DHT22;33995;48.202;16.260;2022-08-27T00:22:44;21.30;99.90
48206;DHT22;33995;48.202;16.260;2022-08-27T00:25:14;21.30;99.90
48206;DHT22;33995;48.202;16.260;2022-08-27T00:27:47;21.30;99.90
48206;DHT22;33995;48.202;16.260;2022-08-27T00:30:17;21.30;99.90
48206;DHT22;33995;48.202;16.260;2022-08-27T00:32:47;21.30;99.90
48206;DHT22;33995;48.202;16.260;2022-08-27T00:35:16;21.30;99.90
48206;DHT22;33995;48.202;16.260;2022-08-27T00:37:47;21.20;99.90
48206;DHT22;33995;48.202;16.260;2022-08-27T00:40:22;21.20;99.90
48206;DHT22;33995;48.202;16.260;2022-08-27T00:42:53;21.20;99.90
48206;DHT22;33995;48.202;16.260;2022-08-27T00:45:24;21.10;99.90
48206;DHT22;33995;48.202;16.260;2022-08-27T00:47:56;21.10;99.90
48206;DHT22;33995;48.202;16.260;2022-08-27T00:50:46;21.00;99.90
48206;DHT22;33995;48.202;16.260;2022-08-27T00:53:21;20.90;99.90
48206;DHT22;33995;48.202;16.260;2022-08-27T00:56:17;20.90;99.90
48206;DHT22;33995;48.202;16.260;2022-08-27T00:58:51;21.00;99.90
48206;DHT22;33995;48.202;16.260;2022-08-27T01:01:30;20.90;99.90
48206;DHT22;33995;48.202;16.260;2022-08-27T01:04:04;20.90;99.90
48206;DHT22;33995;48.202;16.260;2022-08-27T01:06:35;20.90;99.90
48206;DHT22;33995;48.202;16.260;2022-08-27T01:09:11;20.80;99.90
48206;DHT22;33995;48.202;16.260;2022-08-27T01:11:49;20.80;99.90
48206;DHT22;33995;48.202;16.260;2022-08-27T01:14:20;20.80;99.90
48206;DHT22;33995;48.202;16.260;2022-08-27T01:16:55;20.80;99.90
48206;DHT22;33995;48.202;16.260;2022-08-27T01:25:30;20.80;99.90
48206;DHT22;33995;48.202;16.260;2022-08-27T01:28:16;20.70;99.90
48206;DHT22;33995;48.202;16.260;2022-08-27T01:30:51;20.60;99.90
48206;DHT22;33995;48.202;16.260;2022-08-27T01:33:21;20.60;99.90
48206;DHT22;33995;48.202;16.260;2022-08-27T01:35:54;20.60;99.90
48206;DHT22;33995;48.202;16.260;2022-08-27T01:38:23;20.60;99.90
48206;DHT22;33995;48.202;16.260;2022-08-27T01:41:05;20.60;99.90
48206;DHT22;33995;48.202;16.260;2022-08-27T01:43:38;20.60;99.90
48206;DHT22;33995;48.202;16.260;2022-08-27T01:46:27;20.50;99.90
48206;DHT22;33995;48.202;16.260;2022-08-27T01:48:56;20.50;99.90
48206;DHT22;33995;48.202;16.260;2022-08-27T01:51:27;20.50;99.90
48206;DHT22;33995;48.202;16.260;2022-08-27T01:53:58;20.50;99.90
48206;DHT22;33995;48.202;16.260;2022-08-27T01:56:28;20.50;99.90
48206;DHT22;33995;48.202;16.260;2022-08-27T01:59:00;20.50;99.90
48206;DHT22;33995;48.202;16.260;2022-08-27T02:01:45;20.50;99.90
48206;DHT22;33995;48.202;16.260;2022-08-27T02:04:28;20.60;99.90
48206;DHT22;33995;48.202;16.260;2022-08-27T02:07:02;20.50;99.90
48206;DHT22;33995;48.202;16.260;2022-08-27T02:09:46;20.60;99.90
48206;DHT22;33995;48.202;16.260;2022-08-27T02:12:18;20.60;99.90
48206;DHT22;33995;48.202;16.260;2022-08-27T02:14:49;20.60;99.90
48206;DHT22;33995;48.202;16.260;2022-08-27T02:17:21;20.60;99.90
48206;DHT22;33995;48.202;16.260;2022-08-27T02:19:54;20.60;99.90
48206;DHT22;33995;48.202;16.260;2022-08-27T02:22:26;20.60;99.90
48206;DHT22;33995;48.202;16.260;2022-08-27T02:24:59;20.60;99.90
48206;DHT22;33995;48.202;16.260;2022-08-27T02:27:27;20.60;99.90
48206;DHT22;33995;48.202;16.260;2022-08-27T02:29:56;20.60;99.90
48206;DHT22;33995;48.202;16.260;2022-08-27T02:32:26;20.60;99.90
48206;DHT22;33995;48.202;16.260;2022-08-27T02:35:00;20.60;99.90
48206;DHT22;33995;48.202;16.260;2022-08-27T02:37:43;20.60;99.90
48206;DHT22;33995;48.202;16.260;2022-08-27T02:40:17;20.50;99.90
48206;DHT22;33995;48.202;16.260;2022-08-27T02:42:51;20.50;99.90
48206;DHT22;33995;48.202;16.260;2022-08-27T02:45:34;20.50;99.90
48206;DHT22;33995;48.202;16.260;2022-08-27T02:48:07;20.50;99.90
48206;DHT22;33995;48.202;16.260;2022-08-27T02:50:38;20.40;99.90
48206;DHT22;33995;48.202;16.260;2022-08-27T02:53:09;20.40;99.90
48206;DHT22;33995;48.202;16.260;2022-08-27T02:55:41;20.50;99.90
48206;DHT22;33995;48.202;16.260;2022-08-27T02:58:12;20.40;99.90
48206;DHT22;33995;48.202;16.260;2022-08-27T03:00:45;20.40;99.90
48206;DHT22;33995;48.202;16.260;2022-08-27T03:03:19;20.40;99.90
48206;DHT22;33995;48.202;16.260;2022-08-27T03:05:52;20.50;99.90
48206;DHT22;33995;48.202;16.260;2022-08-27T03:08:24;20.40;99.90
48206;DHT22;33995;48.202;16.260;2022-08-27T03:11:16;20.40;99.90
48206;DHT22;33995;48.202;16.260;2022-08-27T03:13:50;20.40;99.90
48206;DHT22;33995;48.202;16.260;2022-08-27T03:16:34;20.40;99.90
48206;DHT22;33995;48.202;16.260;2022-08-27T03:19:03;20.30;99.90
48206;DHT22;33995;48.202;16.260;2022-08-27T03:21:41;20.30;99.90
48206;DHT22;33995;48.202;16.260;2022-08-27T03:24:24;20.30;99.90
48206;DHT22;33995;48.202;16.260;2022-08-27T03:27:02;20.30;99.90
48206;DHT22;33995;48.202;16.260;2022-08-27T03:29:39;20.30;99.90
48206;DHT22;33995;48.202;16.260;2022-08-27T03:32:11;20.20;99.90
48206;DHT22;33995;48.202;16.260;2022-08-27T03:34:44;20.20;99.90
48206;DHT22;33995;48.202;16.260;2022-08-27T03:37:14;20.20;99.90
48206;DHT22;33995;48.202;16.260;2022-08-27T03:39:56;20.10;99.90
48206;DHT22;33995;48.202;16.260;2022-08-27T03:42:39;20.10;99.90
48206;DHT22;33995;48.202;16.260;2022-08-27T03:45:13;20.10;99.90
48206;DHT22;33995;48.202;16.260;2022-08-27T03:47:46;20.00;99.90
48206;DHT22;33995;48.202;16.260;2022-08-27T03:50:15;20.00;99.90
48206;DHT22;33995;48.202;16.260;2022-08-27T03:52:47;19.90;99.90
48206;DHT22;33995;48.202;16.260;2022-08-27T03:55:32;19.80;99.90
48206;DHT22;33995;48.202;16.260;2022-08-27T03:58:02;19.80;99.90
48206;DHT22;33995;48.202;16.260;2022-08-27T04:00:44;19.70;99.90
48206;DHT22;33995;48.202;16.260;2022-08-27T04:03:15;19.70;99.90
48206;DHT22;33995;48.202;16.260;2022-08-27T04:05:51;19.70;99.90
48206;DHT22;33995;48.202;16.260;2022-08-27T04:08:25;19.70;99.90
48206;DHT22;33995;48.202;16.260;2022-08-27T04:10:55;19.60;99.90
48206;DHT22;33995;48.202;16.260;2022-08-27T04:13:32;19.60;99.90
48206;DHT22;33995;48.202;16.260;2022-08-27T04:16:03;19.60;99.90
48206;DHT22;33995;48.202;16.260;2022-08-27T04:18:33;19.60;99.90
48206;DHT22;33995;48.202;16.260;2022-08-27T04:21:10;19.60;99.90
48206;DHT22;33995;48.202;16.260;2022-08-27T04:23:40;19.60;99.90
48206;DHT22;33995;48.202;16.260;2022-08-27T04:26:13;19.50;99.90
48206;DHT22;33995;48.202;16.260;2022-08-27T04:28:44;19.60;99.90
48206;DHT22;33995;48.202;16.260;2022-08-27T04:31:16;19.60;99.90
48206;DHT22;33995;48.202;16.260;2022-08-27T04:33:47;19.70;99.90
48206;DHT22;33995;48.202;16.260;2022-08-27T04:36:19;19.70;99.90
48206;DHT22;33995;48.202;16.260;2022-08-27T04:38:47;19.70;99.90
48206;DHT22;33995;48.202;16.260;2022-08-27T04:41:16;19.60;99.90
48206;DHT22;33995;48.202;16.260;2022-08-27T04:43:56;19.60;99.90
48206;DHT22;33995;48.202;16.260;2022-08-27T04:46:30;19.70;99.90
48206;DHT22;33995;48.202;16.260;2022-08-27T04:49:04;19.70;99.90
48206;DHT22;33995;48.202;16.260;2022-08-27T04:51:41;19.70;99.90
48206;DHT22;33995;48.202;16.260;2022-08-27T04:54:10;19.70;99.90
48206;DHT22;33995;48.202;16.260;2022-08-27T04:56:42;19.70;99.90
48206;DHT22;33995;48.202;16.260;2022-08-27T04:59:12;19.70;99.90
48206;DHT22;33995;48.202;16.260;2022-08-27T05:01:54;19.80;99.90
48206;DHT22;33995;48.202;16.260;2022-08-27T05:04:23;19.90;99.90
48206;DHT22;33995;48.202;16.260;2022-08-27T05:06:55;19.90;99.90
48206;DHT22;33995;48.202;16.260;2022-08-27T05:09:25;19.90;99.90
48206;DHT22;33995;48.202;16.260;2022-08-27T05:11:56;20.00;99.90
48206;DHT22;33995;48.202;16.260;2022-08-27T05:14:27;20.00;99.90
48206;DHT22;33995;48.202;16.260;2022-08-27T05:17:01;20.10;99.90
48206;DHT22;33995;48.202;16.260;2022-08-27T05:19:35;20.10;99.90
48206;DHT22;33995;48.202;16.260;2022-08-27T05:22:03;20.20;99.90
48206;DHT22;33995;48.202;16.260;2022-08-27T05:24:33;20.20;99.90
48206;DHT22;33995;48.202;16.260;2022-08-27T05:27:04;20.30;99.90
48206;DHT22;33995;48.202;16.260;2022-08-27T05:29:36;20.30;99.90
48206;DHT22;33995;48.202;16.260;2022-08-27T05:32:04;20.30;99.90
48206;DHT22;33995;48.202;16.260;2022-08-27T05:34:32;20.40;99.90
48206;DHT22;33995;48.202;16.260;2022-08-27T05:37:03;20.40;99.90
48206;DHT22;33995;48.202;16.260;2022-08-27T05:39:34;20.50;99.90
48206;DHT22;33995;48.202;16.260;2022-08-27T05:42:03;20.50;99.90
48206;DHT22;33995;48.202;16.260;2022-08-27T05:44:34;20.60;99.90
48206;DHT22;33995;48.202;16.260;2022-08-27T05:47:10;20.70;99.90
48206;DHT22;33995;48.202;16.260;2022-08-27T05:49:41;20.80;99.90
48206;DHT22;33995;48.202;16.260;2022-08-27T05:52:11;21.00;99.90
48206;DHT22;33995;48.202;16.260;2022-08-27T05:54:53;21.10;99.90
48206;DHT22;33995;48.202;16.260;2022-08-27T05:57:23;21.20;99.90
48206;DHT22;33995;48.202;16.260;2022-08-27T05:59:56;21.40;99.90
48206;DHT22;33995;48.202;16.260;2022-08-27T06:02:44;21.60;99.90
48206;DHT22;33995;48.202;16.260;2022-08-27T06:05:17;21.70;99.90
48206;DHT22;33995;48.202;16.260;2022-08-27T06:07:46;21.80;99.90
48206;DHT22;33995;48.202;16.260;2022-08-27T06:10:18;21.90;99.90
48206;DHT22;33995;48.202;16.260;2022-08-27T06:12:47;21.90;99.90
48206;DHT22;33995;48.202;16.260;2022-08-27T06:15:24;22.00;99.90
48206;DHT22;33995;48.202;16.260;2022-08-27T06:17:52;22.00;99.90
48206;DHT22;33995;48.202;16.260;2022-08-27T06:20:23;22.10;99.90
48206;DHT22;33995;48.202;16.260;2022-08-27T06:22:55;22.10;99.90
48206;DHT22;33995;48.202;16.260;2022-08-27T06:25:23;22.20;99.90
48206;DHT22;33995;48.202;16.260;2022-08-27T06:27:55;22.40;99.90
48206;DHT22;33995;48.202;16.260;2022-08-27T06:30:24;22.50;99.90
48206;DHT22;33995;48.202;16.260;2022-08-27T06:33:01;22.60;99.90
48206;DHT22;33995;48.202;16.260;2022-08-27T06:35:29;22.80;99.90
48206;DHT22;33995;48.202;16.260;2022-08-27T06:38:01;22.90;99.90
48206;DHT22;33995;48.202;16.260;2022-08-27T06:40:31;22.90;99.90
48206;DHT22;33995;48.202;16.260;2022-08-27T06:43:00;23.00;99.90
48206;DHT22;33995;48.202;16.260;2022-08-27T06:45:31;23.10;99.90
48206;DHT22;33995;48.202;16.260;2022-08-27T06:48:03;23.20;99.90
48206;DHT22;33995;48.202;16.260;2022-08-27T06:50:40;23.30;99.90
48206;DHT22;33995;48.202;16.260;2022-08-27T06:53:16;23.40;99.90
48206;DHT22;33995;48.202;16.260;2022-08-27T06:55:52;23.40;99.90
48206;DHT22;33995;48.202;16.260;2022-08-27T06:58:21;23.40;99.90
48206;DHT22;33995;48.202;16.260;2022-08-27T07:00:49;23.40;99.90
48206;DHT22;33995;48.202;16.260;2022-08-27T07:03:17;23.40;99.90
48206;DHT22;33995;48.202;16.260;2022-08-27T07:05:46;23.50;99.90
48206;DHT22;33995;48.202;16.260;2022-08-27T07:08:16;23.50;99.90
48206;DHT22;33995;48.202;16.260;2022-08-27T07:10:46;23.50;99.90
48206;DHT22;33995;48.202;16.260;2022-08-27T07:13:19;23.80;99.90
48206;DHT22;33995;48.202;16.260;2022-08-27T07:15:47;24.00;99.90
48206;DHT22;33995;48.202;16.260;2022-08-27T07:18:18;24.20;99.90
48206;DHT22;33995;48.202;16.260;2022-08-27T07:20:55;24.40;99.90
48206;DHT22;33995;48.202;16.260;2022-08-27T07:23:23;24.60;99.90
48206;DHT22;33995;48.202;16.260;2022-08-27T07:25:54;24.70;99.90
48206;DHT22;33995;48.202;16.260;2022-08-27T07:28:27;24.90;99.90
48206;DHT22;33995;48.202;16.260;2022-08-27T07:30:58;25.00;99.90
48206;DHT22;33995;48.202;16.260;2022-08-27T07:33:32;25.10;99.90
48206;DHT22;33995;48.202;16.260;2022-08-27T07:36:06;25.30;99.90
48206;DHT22;33995;48.202;16.260;2022-08-27T07:38:35;25.40;99.90
48206;DHT22;33995;48.202;16.260;2022-08-27T07:41:06;25.40;99.90
48206;DHT22;33995;48.202;16.260;2022-08-27T07:43:34;25.50;99.90
48206;DHT22;33995;48.202;16.260;2022-08-27T07:46:26;25.60;99.90
48206;DHT22;33995;48.202;16.260;2022-08-27T07:49:07;25.70;99.90
48206;DHT22;33995;48.202;16.260;2022-08-27T07:51:41;25.50;99.90
48206;DHT22;33995;48.202;16.260;2022-08-27T07:54:09;25.30;99.90
48206;DHT22;33995;48.202;16.260;2022-08-27T07:56:45;25.20;99.90
48206;DHT22;33995;48.202;16.260;2022-08-27T07:59:23;25.10;99.90
48206;DHT22;33995;48.202;16.260;2022-08-27T08:01:55;25.10;99.90
48206;DHT22;33995;48.202;16.260;2022-08-27T08:04:34;25.30;99.90
48206;DHT22;33995;48.202;16.260;2022-08-27T08:07:05;25.40;99.90
48206;DHT22;33995;48.202;16.260;2022-08-27T08:09:35;25.50;99.90
48206;DHT22;33995;48.202;16.260;2022-08-27T08:12:16;25.70;99.90
48206;DHT22;33995;48.202;16.260;2022-08-27T08:14:55;25.70;99.90
48206;DHT22;33995;48.202;16.260;2022-08-27T08:17:27;25.80;99.90
48206;DHT22;33995;48.202;16.260;2022-08-27T08:19:56;25.90;99.90
48206;DHT22;33995;48.202;16.260;2022-08-27T08:22:49;26.00;99.90
48206;DHT22;33995;48.202;16.260;2022-08-27T08:25:18;26.00;99.90
48206;DHT22;33995;48.202;16.260;2022-08-27T08:27:51;26.10;99.90
48206;DHT22;33995;48.202;16.260;2022-08-27T08:30:19;26.30;99.90
48206;DHT22;33995;48.202;16.260;2022-08-27T08:32:49;26.30;99.90
48206;DHT22;33995;48.202;16.260;2022-08-27T08:35:20;26.30;99.90
48206;DHT22;33995;48.202;16.260;2022-08-27T08:37:50;26.20;99.90
48206;DHT22;33995;48.202;16.260;2022-08-27T08:40:38;26.20;99.90
48206;DHT22;33995;48.202;16.260;2022-08-27T08:43:38;26.30;99.90
48206;DHT22;33995;48.202;16.260;2022-08-27T08:46:24;26.40;99.90
48206;DHT22;33995;48.202;16.260;2022-08-27T08:49:00;26.50;99.90
48206;DHT22;33995;48.202;16.260;2022-08-27T08:51:37;26.70;99.90
48206;DHT22;33995;48.202;16.260;2022-08-27T08:54:22;26.80;99.90
48206;DHT22;33995;48.202;16.260;2022-08-27T08:59:43;26.80;99.90
48206;DHT22;33995;48.202;16.260;2022-08-27T09:02:15;26.90;99.90
48206;DHT22;33995;48.202;16.260;2022-08-27T09:05:05;27.10;99.90
48206;DHT22;33995;48.202;16.260;2022-08-27T09:10:54;27.00;99.90
48206;DHT22;33995;48.202;16.260;2022-08-27T09:16:41;27.00;99.90
48206;DHT22;33995;48.202;16.260;2022-08-27T09:19:11;26.90;99.90
48206;DHT22;33995;48.202;16.260;2022-08-27T09:22:00;26.80;99.90
48206;DHT22;33995;48.202;16.260;2022-08-27T09:27:22;26.50;99.90
48206;DHT22;33995;48.202;16.260;2022-08-27T09:29:55;26.60;99.90
48206;DHT22;33995;48.202;16.260;2022-08-27T09:32:27;26.70;99.90
48206;DHT22;33995;48.202;16.260;2022-08-27T09:35:02;26.60;99.90
48206;DHT22;33995;48.202;16.260;2022-08-27T09:37:47;26.70;99.90
48206;DHT22;33995;48.202;16.260;2022-08-27T09:40:58;26.80;99.90
48206;DHT22;33995;48.202;16.260;2022-08-27T09:43:23;27.00;99.90
48206;DHT22;33995;48.202;16.260;2022-08-27T09:48:31;27.40;99.90
48206;DHT22;33995;48.202;16.260;2022-08-27T09:51:17;27.40;99.90
48206;DHT22;33995;48.202;16.260;2022-08-27T09:54:00;27.30;99.90
48206;DHT22;33995;48.202;16.260;2022-08-27T09:56:46;27.10;99.90
48206;DHT22;33995;48.202;16.260;2022-08-27T09:59:32;27.00;99.90
48206;DHT22;33995;48.202;16.260;2022-08-27T10:02:19;26.80;99.90
48206;DHT22;33995;48.202;16.260;2022-08-27T10:04:57;26.90;99.90
48206;DHT22;33995;48.202;16.260;2022-08-27T10:07:47;27.00;99.90
48206;DHT22;33995;48.202;16.260;2022-08-27T10:10:44;27.00;99.90
48206;DHT22;33995;48.202;16.260;2022-08-27T10:13:19;27.00;99.90
48206;DHT22;33995;48.202;16.260;2022-08-27T10:28:05;27.20;99.90
48206;DHT22;33995;48.202;16.260;2022-08-27T10:34:15;27.30;99.90
48206;DHT22;33995;48.202;16.260;2022-08-27T10:52:19;28.10;99.90
48206;DHT22;33995;48.202;16.260;2022-08-27T11:04:23;28.30;99.90
48206;DHT22;33995;48.202;16.260;2022-08-27T11:07:08;28.40;99.90
48206;DHT22;33995;48.202;16.260;2022-08-27T11:09:46;28.60;99.90
48206;DHT22;33995;48.202;16.260;2022-08-27T11:12:44;28.60;99.90
48206;DHT22;33995;48.202;16.260;2022-08-27T11:15:22;28.60;99.90
48206;DHT22;33995;48.202;16.260;2022-08-27T11:18:36;28.70;99.90
48206;DHT22;33995;48.202;16.260;2022-08-27T11:21:13;28.80;99.90
48206;DHT22;33995;48.202;16.260;2022-08-27T11:23:52;28.80;99.90
48206;DHT22;33995;48.202;16.260;2022-08-27T11:26:21;29.00;99.90
48206;DHT22;33995;48.202;16.260;2022-08-27T11:28:55;29.20;99.90
48206;DHT22;33995;48.202;16.260;2022-08-27T11:37:25;29.30;99.90
48206;DHT22;33995;48.202;16.260;2022-08-27T11:42:55;29.40;99.90
48206;DHT22;33995;48.202;16.260;2022-08-27T11:45:33;29.60;99.90
48206;DHT22;33995;48.202;16.260;2022-08-27T11:48:24;29.60;99.90
48206;DHT22;33995;48.202;16.260;2022-08-27T11:53:31;29.80;99.90
48206;DHT22;33995;48.202;16.260;2022-08-27T11:59:08;29.90;99.90
48206;DHT22;33995;48.202;16.260;2022-08-27T12:01:37;29.80;99.90
48206;DHT22;33995;48.202;16.260;2022-08-27T12:12:51;29.40;99.90
48206;DHT22;33995;48.202;16.260;2022-08-27T12:21:17;28.80;99.90
48206;DHT22;33995;48.202;16.260;2022-08-27T12:23:51;28.70;99.90
48206;DHT22;33995;48.202;16.260;2022-08-27T12:26:39;28.80;99.90
48206;DHT22;33995;48.202;16.260;2022-08-27T12:32:32;29.00;99.90
48206;DHT22;33995;48.202;16.260;2022-08-27T12:35:31;29.20;99.90
48206;DHT22;33995;48.202;16.260;2022-08-27T12:38:17;29.30;99.90
48206;DHT22;33995;48.202;16.260;2022-08-27T12:40:52;29.10;99.90
48206;DHT22;33995;48.202;16.260;2022-08-27T12:43:29;29.10;99.90
48206;DHT22;33995;48.202;16.260;2022-08-27T12:46:22;28.90;99.90
48206;DHT22;33995;48.202;16.260;2022-08-27T12:49:02;29.20;99.90
48206;DHT22;33995;48.202;16.260;2022-08-27T12:51:54;29.20;99.90
48206;DHT22;33995;48.202;16.260;2022-08-27T12:54:56;29.20;99.90
48206;DHT22;33995;48.202;16.260;2022-08-27T13:03:49;29.60;99.90
48206;DHT22;33995;48.202;16.260;2022-08-27T13:06:33;29.50;99.90
48206;DHT22;33995;48.202;16.260;2022-08-27T13:09:06;29.60;99.90
48206;DHT22;33995;48.202;16.260;2022-08-27T13:11:48;29.60;99.90
48206;DHT22;33995;48.202;16.260;2022-08-27T13:14:19;29.40;99.90
48206;DHT22;33995;48.202;16.260;2022-08-27T13:16:58;29.40;99.90
48206;DHT22;33995;48.202;16.260;2022-08-27T13:19:30;29.50;99.90
48206;DHT22;33995;48.202;16.260;2022-08-27T13:22:01;29.30;99.90
48206;DHT22;33995;48.202;16.260;2022-08-27T13:24:47;29.20;99.90
48206;DHT22;33995;48.202;16.260;2022-08-27T13:27:23;29.10;99.90
48206;DHT22;33995;48.202;16.260;2022-08-27T13:30:01;29.10;99.90
48206;DHT22;33995;48.202;16.260;2022-08-27T13:32:33;29.20;99.90
48206;DHT22;33995;48.202;16.260;2022-08-27T13:35:06;29.30;99.90
48206;DHT22;33995;48.202;16.260;2022-08-27T13:37:45;29.10;99.90
48206;DHT22;33995;48.202;16.260;2022-08-27T13:40:35;28.90;99.90
48206;DHT22;33995;48.202;16.260;2022-08-27T13:43:10;28.60;99.90
48206;DHT22;33995;48.202;16.260;2022-08-27T13:45:41;28.50;99.90
48206;DHT22;33995;48.202;16.260;2022-08-27T13:48:20;28.30;99.90
48206;DHT22;33995;48.202;16.260;2022-08-27T13:50:55;28.20;99.90
48206;DHT22;33995;48.202;16.260;2022-08-27T13:53:29;28.10;99.90
48206;DHT22;33995;48.202;16.260;2022-08-27T13:56:31;28.00;99.90
48206;DHT22;33995;48.202;16.260;2022-08-27T13:59:23;27.90;99.90
48206;DHT22;33995;48.202;16.260;2022-08-27T14:05:01;27.80;99.90
48206;DHT22;33995;48.202;16.260;2022-08-27T14:07:37;27.90;99.90
48206;DHT22;33995;48.202;16.260;2022-08-27T14:10:28;27.90;99.90
48206;DHT22;33995;48.202;16.260;2022-08-27T14:13:09;27.80;99.90
48206;DHT22;33995;48.202;16.260;2022-08-27T14:15:46;27.80;99.90
48206;DHT22;33995;48.202;16.260;2022-08-27T14:18:33;27.80;99.90
48206;DHT22;33995;48.202;16.260;2022-08-27T14:21:25;27.80;99.90
48206;DHT22;33995;48.202;16.260;2022-08-27T14:23:58;27.80;99.90
48206;DHT22;33995;48.202;16.260;2022-08-27T14:26:26;27.80;99.90
48206;DHT22;33995;48.202;16.260;2022-08-27T14:28:58;27.80;99.90
48206;DHT22;33995;48.202;16.260;2022-08-27T14:31:29;27.80;99.90
48206;DHT22;33995;48.202;16.260;2022-08-27T14:33:57;27.90;99.90
48206;DHT22;33995;48.202;16.260;2022-08-27T14:36:27;28.00;99.90
48206;DHT22;33995;48.202;16.260;2022-08-27T14:38:57;28.10;99.90
48206;DHT22;33995;48.202;16.260;2022-08-27T14:41:27;28.10;99.90
48206;DHT22;33995;48.202;16.260;2022-08-27T14:43:55;28.20;99.90
48206;DHT22;33995;48.202;16.260;2022-08-27T14:46:29;28.20;99.90
48206;DHT22;33995;48.202;16.260;2022-08-27T14:48:59;28.20;99.90
48206;DHT22;33995;48.202;16.260;2022-08-27T14:51:30;28.30;99.90
48206;DHT22;33995;48.202;16.260;2022-08-27T14:54:01;28.40;99.90
48206;DHT22;33995;48.202;16.260;2022-08-27T14:56:45;28.30;99.90
48206;DHT22;33995;48.202;16.260;2022-08-27T14:59:16;28.30;99.90
48206;DHT22;33995;48.202;16.260;2022-08-27T15:01:45;28.20;99.90
48206;DHT22;33995;48.202;16.260;2022-08-27T15:04:18;28.00;99.90
48206;DHT22;33995;48.202;16.260;2022-08-27T15:06:47;28.00;99.90
48206;DHT22;33995;48.202;16.260;2022-08-27T15:09:16;28.00;99.90
48206;DHT22;33995;48.202;16.260;2022-08-27T15:11:48;28.00;99.90
48206;DHT22;33995;48.202;16.260;2022-08-27T15:14:38;27.90;99.90
48206;DHT22;33995;48.202;16.260;2022-08-27T15:17:06;27.70;99.90
48206;DHT22;33995;48.202;16.260;2022-08-27T15:19:54;27.70;99.90
48206;DHT22;33995;48.202;16.260;2022-08-27T15:22:32;27.50;99.90
48206;DHT22;33995;48.202;16.260;2022-08-27T15:25:00;27.40;99.90
48206;DHT22;33995;48.202;16.260;2022-08-27T15:27:30;27.30;99.90
48206;DHT22;33995;48.202;16.260;2022-08-27T15:30:07;27.20;99.90
48206;DHT22;33995;48.202;16.260;2022-08-27T15:32:49;27.20;99.90
48206;DHT22;33995;48.202;16.260;2022-08-27T15:35:23;27.10;99.90
48206;DHT22;33995;48.202;16.260;2022-08-27T15:37:56;27.10;99.90
48206;DHT22;33995;48.202;16.260;2022-08-27T15:40:26;26.90;99.90
48206;DHT22;33995;48.202;16.260;2022-08-27T15:43:03;26.90;99.90
48206;DHT22;33995;48.202;16.260;2022-08-27T15:45:33;26.80;99.90
48206;DHT22;33995;48.202;16.260;2022-08-27T15:48:07;26.70;99.90
48206;DHT22;33995;48.202;16.260;2022-08-27T15:50:37;26.70;99.90
48206;DHT22;33995;48.202;16.260;2022-08-27T15:53:12;26.70;99.90
48206;DHT22;33995;48.202;16.260;2022-08-27T15:55:42;26.60;99.90
48206;DHT22;33995;48.202;16.260;2022-08-27T15:58:14;26.60;99.90
48206;DHT22;33995;48.202;16.260;2022-08-27T16:00:49;26.50;99.90
48206;DHT22;33995;48.202;16.260;2022-08-27T16:03:30;26.40;99.90
48206;DHT22;33995;48.202;16.260;2022-08-27T16:06:04;26.40;99.90
48206;DHT22;33995;48.202;16.260;2022-08-27T16:08:35;26.30;99.90
48206;DHT22;33995;48.202;16.260;2022-08-27T16:11:10;26.30;99.90
48206;DHT22;33995;48.202;16.260;2022-08-27T16:13:39;26.30;99.90
48206;DHT22;33995;48.202;16.260;2022-08-27T16:16:11;26.20;99.90
48206;DHT22;33995;48.202;16.260;2022-08-27T16:18:53;26.20;99.90
48206;DHT22;33995;48.202;16.260;2022-08-27T16:21:26;26.20;99.90
48206;DHT22;33995;48.202;16.260;2022-08-27T16:24:09;26.20;99.90
48206;DHT22;33995;48.202;16.260;2022-08-27T16:26:40;26.10;99.90
48206;DHT22;33995;48.202;16.260;2022-08-27T16:29:10;26.10;99.90
48206;DHT22;33995;48.202;16.260;2022-08-27T16:31:42;26.00;99.90
48206;DHT22;33995;48.202;16.260;2022-08-27T16:34:31;26.00;99.90
48206;DHT22;33995;48.202;16.260;2022-08-27T16:36:59;26.00;99.90
48206;DHT22;33995;48.202;16.260;2022-08-27T16:39:29;26.00;99.90
48206;DHT22;33995;48.202;16.260;2022-08-27T16:42:04;25.90;99.90
48206;DHT22;33995;48.202;16.260;2022-08-27T16:44:36;25.90;99.90
48206;DHT22;33995;48.202;16.260;2022-08-27T16:47:07;25.90;99.90
48206;DHT22;33995;48.202;16.260;2022-08-27T16:49:37;25.80;99.90
48206;DHT22;33995;48.202;16.260;2022-08-27T16:52:28;25.80;99.90
48206;DHT22;33995;48.202;16.260;2022-08-27T16:54:58;25.70;99.90
48206;DHT22;33995;48.202;16.260;2022-08-27T16:57:27;25.70;99.90
48206;DHT22;33995;48.202;16.260;2022-08-27T16:59:55;25.70;99.90
48206;DHT22;33995;48.202;16.260;2022-08-27T17:02:28;25.60;99.90
48206;DHT22;33995;48.202;16.260;2022-08-27T17:05:00;25.60;99.90
48206;DHT22;33995;48.202;16.260;2022-08-27T17:07:47;25.60;99.90
48206;DHT22;33995;48.202;16.260;2022-08-27T17:10:20;25.50;99.90
48206;DHT22;33995;48.202;16.260;2022-08-27T17:12:50;25.50;99.90
48206;DHT22;33995;48.202;16.260;2022-08-27T17:15:25;25.40;99.90
48206;DHT22;33995;48.202;16.260;2022-08-27T17:18:02;25.30;99.90
48206;DHT22;33995;48.202;16.260;2022-08-27T17:20:34;25.30;99.90
48206;DHT22;33995;48.202;16.260;2022-08-27T17:23:25;25.30;99.90
48206;DHT22;33995;48.202;16.260;2022-08-27T17:25:59;25.30;99.90
48206;DHT22;33995;48.202;16.260;2022-08-27T17:28:27;25.20;99.90
48206;DHT22;33995;48.202;16.260;2022-08-27T17:30:59;25.20;99.90
48206;DHT22;33995;48.202;16.260;2022-08-27T17:33:43;25.10;99.90
48206;DHT22;33995;48.202;16.260;2022-08-27T17:36:17;25.00;99.90
48206;DHT22;33995;48.202;16.260;2022-08-27T17:39:02;25.00;99.90
48206;DHT22;33995;48.202;16.260;2022-08-27T17:41:35;24.90;99.90
48206;DHT22;33995;48.202;16.260;2022-08-27T17:44:29;24.90;99.90
48206;DHT22;33995;48.202;16.260;2022-08-27T17:47:01;24.80;99.90
48206;DHT22;33995;48.202;16.260;2022-08-27T17:49:32;24.80;99.90